Time;durP1;ratioP1;P1;durP2;ratioP2;P2;SDS_P1;SDS_P2;PMS_P1;PMS_P2;Temp;Humidity;BMP_temperature;BMP_pressure;BME280_temperature;BME280_humidity;BME280_pressure;Samples;Min_cycle;Max_cycle;Signal;HPM_P1;HPM_P2
2022/07/20 00:00:26;;;;;;;6.03;3.47;;;22.60;99.00;;;;;;5020040;28;20448;-58
2022/07/20 00:02:54;;;;;;;6.00;4.17;;;22.60;99.30;;;;;;5020762;28;20459;-56
2022/07/20 00:05:21;;;;;;;4.07;3.77;;;22.50;99.80;;;;;;5019978;28;20756;-53
2022/07/20 00:07:49;;;;;;;5.50;3.50;;;22.50;99.90;;;;;;5019969;28;20409;-56
2022/07/20 00:13:03;;;;;;;6.10;3.67;;;22.50;99.90;;;;;;5018011;28;20432;-58
2022/07/20 00:15:30;;;;;;;8.53;3.60;;;22.50;99.90;;;;;;5019819;28;20406;-57
2022/07/20 00:17:57;;;;;;;9.20;4.33;;;22.30;99.90;;;;;;5019727;28;20437;-57
2022/07/20 00:20:25;;;;;;;4.90;3.50;;;22.30;99.90;;;;;;5019851;28;20461;-56
2022/07/20 00:22:53;;;;;;;9.10;4.17;;;22.30;99.90;;;;;;5019768;28;20455;-56
2022/07/20 00:25:20;;;;;;;6.53;3.93;;;22.40;99.90;;;;;;5020119;28;20427;-57
2022/07/20 00:27:47;;;;;;;4.90;4.40;;;22.40;99.90;;;;;;5019847;28;20409;-57
2022/07/20 00:30:15;;;;;;;4.80;3.57;;;22.30;99.90;;;;;;5019797;28;20761;-58
2022/07/20 00:32:42;;;;;;;4.20;3.80;;;22.20;99.90;;;;;;5019474;28;20459;-57
2022/07/20 00:35:15;;;;;;;9.63;3.53;;;22.20;99.90;;;;;;5019948;28;20416;-58
2022/07/20 00:37:43;;;;;;;9.80;3.20;;;22.20;99.90;;;;;;5019707;28;20430;-57
2022/07/20 00:40:13;;;;;;;3.70;3.20;;;22.20;99.90;;;;;;5019527;28;20474;-57
2022/07/20 00:42:40;;;;;;;5.33;3.10;;;22.30;99.90;;;;;;5019968;28;20441;-59
2022/07/20 00:45:09;;;;;;;12.27;4.13;;;22.30;99.90;;;;;;5019845;28;20422;-57
2022/07/20 00:47:37;;;;;;;11.27;4.20;;;22.20;99.90;;;;;;5019578;28;20416;-57
2022/07/20 00:50:05;;;;;;;5.97;3.77;;;22.10;99.90;;;;;;5019503;28;20747;-57
2022/07/20 00:52:33;;;;;;;3.60;3.07;;;22.00;99.90;;;;;;5019681;28;20454;-57
2022/07/20 00:55:00;;;;;;;6.47;3.90;;;21.90;99.90;;;;;;5019799;28;20620;-58
2022/07/20 00:57:29;;;;;;;5.33;3.67;;;21.90;99.90;;;;;;5019495;28;20487;-58
2022/07/20 00:59:57;;;;;;;7.33;3.40;;;22.00;99.90;;;;;;5021083;28;20526;-57
2022/07/20 01:02:25;;;;;;;4.73;3.43;;;21.90;99.90;;;;;;5023114;28;20515;-57
2022/07/20 01:04:52;;;;;;;6.60;2.93;;;21.90;99.90;;;;;;5023402;28;20746;-59
2022/07/20 01:07:20;;;;;;;7.40;3.77;;;22.00;99.90;;;;;;5023448;28;20452;-55
2022/07/20 01:09:47;;;;;;;6.90;3.30;;;21.90;99.90;;;;;;5015329;28;20801;-54
2022/07/20 01:12:14;;;;;;;4.77;4.00;;;21.80;99.90;;;;;;5023345;28;20427;-53
2022/07/20 01:14:42;;;;;;;3.77;3.40;;;21.70;99.90;;;;;;5022842;28;20415;-56
2022/07/20 01:17:09;;;;;;;3.50;2.83;;;21.70;99.90;;;;;;5023102;28;20432;-56
2022/07/20 01:19:37;;;;;;;3.63;3.33;;;21.70;99.90;;;;;;5022929;28;20440;-55
2022/07/20 01:22:04;;;;;;;5.73;3.70;;;21.60;99.90;;;;;;5022757;28;20481;-56
2022/07/20 01:24:32;;;;;;;8.70;3.07;;;21.50;99.90;;;;;;5022733;28;20674;-57
2022/07/20 01:26:59;;;;;;;5.27;3.47;;;21.50;99.90;;;;;;5022887;28;20433;-56
2022/07/20 01:29:26;;;;;;;5.53;4.53;;;21.40;99.90;;;;;;5022766;28;20648;-57
2022/07/20 01:31:54;;;;;;;3.47;3.17;;;21.30;99.90;;;;;;5022601;28;20674;-55
2022/07/20 01:34:21;;;;;;;6.27;4.17;;;21.30;99.90;;;;;;5022692;28;20436;-56
2022/07/20 01:36:48;;;;;;;9.67;3.70;;;21.30;99.90;;;;;;5022629;28;20413;-54
2022/07/20 01:39:16;;;;;;;4.90;3.13;;;21.10;99.90;;;;;;5022888;28;20490;-55
2022/07/20 01:41:43;;;;;;;6.80;2.93;;;21.00;99.90;;;;;;5022504;28;20456;-57
2022/07/20 01:44:10;;;;;;;4.10;3.67;;;21.00;99.90;;;;;;5022503;28;20412;-56
2022/07/20 01:46:38;;;;;;;5.63;3.20;;;21.00;99.90;;;;;;5022345;28;20412;-55
2022/07/20 01:49:05;;;;;;;4.90;3.83;;;21.00;99.90;;;;;;5024874;28;20433;-58
2022/07/20 01:51:32;;;;;;;5.27;4.70;;;21.00;99.90;;;;;;5026525;28;20719;-59
2022/07/20 01:53:59;;;;;;;4.40;3.73;;;20.90;99.90;;;;;;5023985;28;20418;-57
2022/07/20 01:56:27;;;;;;;8.20;3.80;;;21.00;99.90;;;;;;5023679;28;20427;-55
2022/07/20 01:58:54;;;;;;;3.40;3.07;;;21.00;99.90;;;;;;5023057;28;20737;-58
2022/07/20 02:01:21;;;;;;;4.80;3.17;;;20.90;99.90;;;;;;5020148;28;20517;-57
2022/07/20 02:03:49;;;;;;;5.17;3.90;;;20.80;99.90;;;;;;5022252;28;20456;-57
2022/07/20 02:06:16;;;;;;;7.40;4.13;;;20.80;99.90;;;;;;5022441;28;20458;-57
2022/07/20 02:08:44;;;;;;;9.80;4.23;;;20.90;99.90;;;;;;5021912;28;20403;-58
2022/07/20 02:11:11;;;;;;;5.43;3.80;;;20.90;99.90;;;;;;5021823;28;20512;-57
2022/07/20 02:13:38;;;;;;;7.10;3.90;;;20.90;99.90;;;;;;5021997;28;20625;-57
2022/07/20 02:16:17;;;;;;;4.90;4.20;;;20.90;99.90;;;;;;5021941;28;20490;-57
2022/07/20 02:18:59;;;;;;;6.60;4.10;;;20.80;99.90;;;;;;5022130;28;20414;-56
2022/07/20 02:21:29;;;;;;;8.00;4.10;;;20.60;99.90;;;;;;5021518;28;20476;-57
2022/07/20 02:23:57;;;;;;;6.50;4.47;;;20.60;99.90;;;;;;5021950;28;20440;-59
2022/07/20 02:26:25;;;;;;;5.60;4.67;;;20.50;99.90;;;;;;5021336;28;20406;-57
2022/07/20 02:28:53;;;;;;;4.03;3.50;;;20.30;99.90;;;;;;5021703;28;20446;-57
2022/07/20 02:31:22;;;;;;;6.77;4.90;;;20.30;99.90;;;;;;5021387;28;20410;-56
2022/07/20 02:33:56;;;;;;;6.33;4.00;;;20.10;99.90;;;;;;5015136;28;20659;-58
2022/07/20 02:36:24;;;;;;;4.00;3.60;;;20.30;99.90;;;;;;5021085;28;20865;-56
2022/07/20 02:38:51;;;;;;;6.93;4.07;;;20.30;99.90;;;;;;5021767;28;20439;-53
2022/07/20 02:41:19;;;;;;;4.43;4.03;;;20.30;99.90;;;;;;5021173;28;20500;-57
2022/07/20 02:43:46;;;;;;;6.10;3.93;;;20.40;99.90;;;;;;5018730;28;20448;-58
2022/07/20 02:46:13;;;;;;;6.27;4.90;;;20.30;99.90;;;;;;5021679;28;20410;-57
2022/07/20 02:48:41;;;;;;;5.40;4.70;;;20.30;99.90;;;;;;5021360;28;20590;-57
2022/07/20 02:51:08;;;;;;;5.43;4.50;;;20.40;99.90;;;;;;5021568;28;20546;-57
2022/07/20 02:53:35;;;;;;;6.97;4.80;;;20.50;99.90;;;;;;5031220;22;20738;-49
2022/07/20 02:56:03;;;;;;;11.33;4.07;;;20.50;99.90;;;;;;4992852;28;20410;-47
2022/07/20 02:58:30;;;;;;;5.70;4.77;;;20.60;99.90;;;;;;5011358;28;20417;-45
2022/07/20 03:00:57;;;;;;;4.37;3.97;;;20.60;99.90;;;;;;5009778;28;20482;-45
2022/07/20 03:03:25;;;;;;;6.23;4.40;;;20.40;99.90;;;;;;5015243;28;20452;-48
2022/07/20 03:05:52;;;;;;;5.77;4.40;;;20.20;99.90;;;;;;5009698;28;20511;-47
2022/07/20 03:08:20;;;;;;;6.97;5.13;;;20.10;99.90;;;;;;5015910;28;20408;-46
2022/07/20 03:10:47;;;;;;;4.53;4.13;;;20.20;99.90;;;;;;5005006;28;20813;-48
2022/07/20 03:13:15;;;;;;;5.83;5.13;;;20.10;99.90;;;;;;5009458;28;20438;-50
2022/07/20 03:15:42;;;;;;;6.07;4.33;;;19.90;99.90;;;;;;5018963;28;20414;-51
2022/07/20 03:18:09;;;;;;;4.73;4.30;;;19.70;99.90;;;;;;5011133;28;20414;-51
2022/07/20 03:20:36;;;;;;;5.77;5.23;;;19.80;99.90;;;;;;5016864;28;20435;-52
2022/07/20 03:23:04;;;;;;;6.40;4.80;;;19.90;99.90;;;;;;5008736;28;20797;-46
2022/07/20 03:25:31;;;;;;;6.27;3.87;;;20.00;99.90;;;;;;5016638;28;20424;-45
2022/07/20 03:27:59;;;;;;;9.37;5.47;;;20.20;99.90;;;;;;5009068;28;20432;-50
2022/07/20 03:30:27;;;;;;;8.23;3.50;;;20.40;99.90;;;;;;5009630;28;20623;-47
2022/07/20 03:32:55;;;;;;;4.53;3.73;;;20.40;99.90;;;;;;5014019;28;20459;-51
2022/07/20 03:35:23;;;;;;;4.93;4.17;;;20.20;99.90;;;;;;5009400;28;20750;-51
2022/07/20 03:37:50;;;;;;;15.10;4.47;;;20.10;99.90;;;;;;5015094;28;20440;-47
2022/07/20 03:40:18;;;;;;;8.23;5.00;;;20.10;99.90;;;;;;5008659;28;20821;-49
2022/07/20 03:42:45;;;;;;;10.30;4.77;;;20.20;99.90;;;;;;5016467;28;20503;-50
2022/07/20 03:45:12;;;;;;;6.53;5.40;;;20.40;99.90;;;;;;4991681;28;20765;-47
2022/07/20 03:47:40;;;;;;;4.33;4.00;;;20.60;99.90;;;;;;5010819;28;20415;-46
2022/07/20 03:50:08;;;;;;;14.53;4.93;;;21.00;99.90;;;;;;5012363;28;20730;-47
2022/07/20 03:52:35;;;;;;;6.30;5.70;;;21.40;99.90;;;;;;5010065;28;20810;-46
2022/07/20 03:55:03;;;;;;;6.60;4.63;;;21.40;99.90;;;;;;5013457;28;20556;-49
2022/07/20 03:57:31;;;;;;;6.47;4.40;;;21.50;99.90;;;;;;5009711;28;20428;-48
2022/07/20 03:59:58;;;;;;;7.27;5.20;;;21.50;99.90;;;;;;5014928;28;20416;-48
2022/07/20 04:02:25;;;;;;;6.63;4.13;;;21.70;99.90;;;;;;5008357;28;20545;-49
2022/07/20 04:04:52;;;;;;;8.30;5.17;;;21.80;99.90;;;;;;5012208;28;20438;-52
2022/07/20 04:07:20;;;;;;;5.40;4.90;;;22.10;99.90;;;;;;5009798;28;20410;-50
2022/07/20 04:09:47;;;;;;;7.97;5.13;;;22.20;99.90;;;;;;4997559;28;20445;-50
2022/07/20 04:12:20;;;;;;;7.07;4.50;;;22.20;99.90;;;;;;5011965;28;20443;-51
2022/07/20 04:14:52;;;;;;;8.80;5.13;;;22.30;99.90;;;;;;5009646;28;20504;-49
2022/07/20 04:17:20;;;;;;;5.97;4.67;;;22.10;99.90;;;;;;5011817;28;20421;-51
2022/07/20 04:19:48;;;;;;;8.73;4.27;;;22.00;99.90;;;;;;5009253;28;20424;-46
2022/07/20 04:22:16;;;;;;;8.13;5.37;;;22.10;99.90;;;;;;5011870;28;20509;-51
2022/07/20 04:24:43;;;;;;;4.97;4.43;;;22.00;99.90;;;;;;5011188;28;20606;-47
2022/07/20 04:27:11;;;;;;;8.13;4.30;;;22.10;99.90;;;;;;5011704;28;20455;-49
2022/07/20 04:29:38;;;;;;;5.90;5.00;;;22.20;99.90;;;;;;5008598;28;20662;-48
2022/07/20 04:32:06;;;;;;;8.13;4.40;;;22.20;99.90;;;;;;5012133;28;20443;-50
2022/07/20 04:34:34;;;;;;;7.40;6.33;;;22.10;99.90;;;;;;5011728;28;20700;-54
2022/07/20 04:37:06;;;;;;;8.30;5.03;;;22.20;99.90;;;;;;5016864;28;20438;-47
2022/07/20 04:39:34;;;;;;;6.80;4.63;;;22.30;99.90;;;;;;5013620;28;20407;-46
2022/07/20 04:42:01;;;;;;;4.47;3.93;;;22.30;99.90;;;;;;5016700;28;20549;-49
2022/07/20 04:44:29;;;;;;;4.13;3.73;;;22.40;99.90;;;;;;5014382;28;20437;-46
2022/07/20 04:46:56;;;;;;;4.67;4.20;;;22.50;99.90;;;;;;5011681;28;20435;-48
2022/07/20 04:49:24;;;;;;;7.17;4.60;;;22.50;99.90;;;;;;5018060;28;20430;-47
2022/07/20 04:51:51;;;;;;;6.90;5.00;;;22.60;99.90;;;;;;5011496;28;20424;-47
2022/07/20 04:54:19;;;;;;;4.33;3.90;;;22.60;99.90;;;;;;5019021;28;20409;-45
2022/07/20 04:56:46;;;;;;;8.90;4.60;;;22.80;99.90;;;;;;5006989;28;20446;-49
2022/07/20 04:59:14;;;;;;;5.17;4.77;;;22.80;99.90;;;;;;5019091;28;20661;-50
2022/07/20 05:01:42;;;;;;;9.13;4.67;;;22.90;99.90;;;;;;5012019;28;20483;-50
2022/07/20 05:04:11;;;;;;;15.47;4.13;;;23.00;99.90;;;;;;4990143;28;20433;-52
2022/07/20 05:06:39;;;;;;;6.50;5.00;;;23.10;99.90;;;;;;5017630;28;20616;-45
2022/07/20 05:09:07;;;;;;;5.27;3.80;;;23.20;99.90;;;;;;5011394;28;20761;-48
2022/07/20 05:11:34;;;;;;;4.60;3.90;;;23.40;99.90;;;;;;5013323;28;20462;-50
2022/07/20 05:14:02;;;;;;;4.70;4.17;;;23.40;99.90;;;;;;5014723;28;20432;-48
2022/07/20 05:16:29;;;;;;;8.17;3.80;;;23.50;99.90;;;;;;5012563;28;20409;-49
2022/07/20 05:18:57;;;;;;;4.87;4.43;;;23.50;99.90;;;;;;5014557;28;20497;-50
2022/07/20 05:21:24;;;;;;;18.00;5.43;;;23.50;99.90;;;;;;5013370;28;20669;-53
2022/07/20 05:23:52;;;;;;;9.63;4.10;;;23.50;99.90;;;;;;5014558;28;20425;-50
2022/07/20 05:26:19;;;;;;;10.87;6.10;;;23.60;99.90;;;;;;5014305;28;20767;-49
2022/07/20 05:28:46;;;;;;;7.03;5.93;;;23.70;99.90;;;;;;5001361;28;20409;-52
2022/07/20 05:31:14;;;;;;;11.57;4.47;;;23.90;99.90;;;;;;5013611;28;20466;-48
2022/07/20 05:33:42;;;;;;;6.10;4.77;;;24.00;99.90;;;;;;5013671;28;20460;-52
2022/07/20 05:36:11;;;;;;;5.30;4.60;;;24.10;99.90;;;;;;5014397;28;20506;-49
2022/07/20 05:38:38;;;;;;;5.80;4.70;;;24.40;99.90;;;;;;5013408;28;20513;-52
2022/07/20 05:41:06;;;;;;;5.50;4.03;;;24.40;99.90;;;;;;5014532;28;20530;-50
2022/07/20 05:43:34;;;;;;;6.07;4.60;;;24.60;99.90;;;;;;5013035;28;20461;-50
2022/07/20 05:46:01;;;;;;;7.97;4.50;;;24.60;99.90;;;;;;5007965;28;20450;-47
2022/07/20 05:48:30;;;;;;;5.30;4.50;;;24.60;99.90;;;;;;5010380;28;20410;-49
2022/07/20 05:50:57;;;;;;;9.97;5.03;;;24.80;99.90;;;;;;5009136;28;20796;-45
2022/07/20 05:53:25;;;;;;;13.17;6.03;;;25.00;99.90;;;;;;5010861;28;20558;-49
2022/07/20 05:55:52;;;;;;;8.10;5.27;;;25.20;99.90;;;;;;5013439;28;20410;-52
2022/07/20 05:58:20;;;;;;;5.80;4.70;;;25.30;99.90;;;;;;5005338;28;20884;-51
2022/07/20 06:00:47;;;;;;;5.50;3.80;;;25.40;99.90;;;;;;5004922;28;20411;-50
2022/07/20 06:03:14;;;;;;;5.47;4.13;;;25.60;99.90;;;;;;5006788;28;20778;-51
2022/07/20 06:05:42;;;;;;;4.60;3.77;;;25.50;99.90;;;;;;5011794;28;20994;-46
2022/07/20 06:08:09;;;;;;;8.53;4.70;;;25.60;99.90;;;;;;5007923;28;20410;-51
2022/07/20 06:10:36;;;;;;;5.30;4.80;;;26.00;99.90;;;;;;4996352;28;20483;-51
2022/07/20 06:13:04;;;;;;;5.57;4.40;;;25.90;99.90;;;;;;4998391;28;20778;-49
2022/07/20 06:15:36;;;;;;;5.33;4.50;;;26.00;99.90;;;;;;4997983;28;20491;-47
2022/07/20 06:18:03;;;;;;;7.73;4.80;;;26.30;99.90;;;;;;4997572;28;20574;-48
2022/07/20 06:20:31;;;;;;;7.50;4.57;;;26.60;99.90;;;;;;4999136;28;20444;-52
2022/07/20 06:22:59;;;;;;;4.87;3.90;;;26.90;99.90;;;;;;4998623;28;20680;-49
2022/07/20 06:25:26;;;;;;;6.20;4.73;;;27.30;99.90;;;;;;4995180;28;20432;-47
2022/07/20 06:27:57;;;;;;;8.50;4.10;;;27.50;99.90;;;;;;4997290;28;20431;-47
2022/07/20 06:30:24;;;;;;;9.20;4.47;;;27.90;99.90;;;;;;4996345;28;20410;-49
2022/07/20 06:32:52;;;;;;;5.77;3.33;;;28.40;99.90;;;;;;4997008;28;20466;-51
2022/07/20 06:35:21;;;;;;;8.13;4.30;;;28.70;99.90;;;;;;4995655;28;20445;-50
2022/07/20 06:37:49;;;;;;;5.57;4.20;;;28.90;99.90;;;;;;5002116;28;20458;-49
2022/07/20 06:40:16;;;;;;;9.10;4.53;;;29.10;99.90;;;;;;4996004;28;20475;-50
2022/07/20 06:42:43;;;;;;;4.10;3.70;;;29.40;99.90;;;;;;5002244;28;20535;-51
2022/07/20 06:45:11;;;;;;;5.10;4.07;;;29.90;99.90;;;;;;4996845;28;20497;-51
2022/07/20 06:47:38;;;;;;;5.93;3.83;;;30.00;99.90;;;;;;4996809;28;20442;-51
2022/07/20 06:50:05;;;;;;;9.77;5.30;;;30.10;99.90;;;;;;5002465;28;20737;-48
2022/07/20 06:52:33;;;;;;;6.63;4.40;;;30.00;99.90;;;;;;4997120;28;20474;-51
2022/07/20 06:55:01;;;;;;;4.43;3.40;;;30.50;99.90;;;;;;5001616;28;20467;-47
2022/07/20 06:57:29;;;;;;;3.77;3.40;;;31.20;99.90;;;;;;5007168;28;20436;-48
2022/07/20 06:59:56;;;;;;;8.20;4.43;;;32.20;98.40;;;;;;5009775;28;20434;-48
2022/07/20 07:02:23;;;;;;;5.00;3.40;;;32.60;98.20;;;;;;5009731;28;20464;-48
2022/07/20 07:04:50;;;;;;;5.03;3.70;;;33.40;96.30;;;;;;5013029;28;20462;-52
2022/07/20 07:07:17;;;;;;;3.20;3.00;;;34.50;93.80;;;;;;5011154;28;20643;-53
2022/07/20 07:09:44;;;;;;;5.30;3.97;;;35.00;92.40;;;;;;5012182;28;20422;-52
2022/07/20 07:12:12;;;;;;;5.43;4.10;;;34.30;91.70;;;;;;5012283;28;20459;-48
2022/07/20 07:14:39;;;;;;;5.40;3.80;;;34.00;92.40;;;;;;5010538;28;20692;-53
2022/07/20 07:17:06;;;;;;;9.67;5.23;;;34.00;91.80;;;;;;5012486;28;20436;-48
2022/07/20 07:19:34;;;;;;;5.30;4.77;;;34.80;90.30;;;;;;5011031;28;20646;-48
2022/07/20 07:22:01;;;;;;;3.70;3.40;;;35.50;89.10;;;;;;5011985;28;20489;-48
2022/07/20 07:24:28;;;;;;;4.53;3.30;;;37.20;83.20;;;;;;5011309;28;20435;-50
2022/07/20 07:26:55;;;;;;;3.20;2.90;;;39.50;72.40;;;;;;5010830;28;20431;-49
2022/07/20 07:29:23;;;;;;;8.00;3.87;;;41.10;64.60;;;;;;5011920;28;20605;-48
2022/07/20 07:31:51;;;;;;;7.80;4.23;;;42.40;57.70;;;;;;5010878;28;20438;-49
2022/07/20 07:34:19;;;;;;;6.13;3.33;;;42.50;55.20;;;;;;5012304;28;20717;-48
2022/07/20 07:36:46;;;;;;;4.17;3.87;;;42.90;53.50;;;;;;5009420;28;20812;-50
2022/07/20 07:39:14;;;;;;;4.20;3.37;;;44.20;51.30;;;;;;5011890;28;20502;-49
2022/07/20 07:41:41;;;;;;;4.00;3.70;;;45.20;48.30;;;;;;5009194;28;20517;-49
2022/07/20 07:44:08;;;;;;;5.57;3.50;;;46.10;47.50;;;;;;5012266;28;20510;-47
2022/07/20 07:46:36;;;;;;;4.00;3.40;;;46.60;44.90;;;;;;5009402;28;20460;-51
2022/07/20 07:49:04;;;;;;;3.80;3.40;;;46.80;43.90;;;;;;5012884;28;20461;-50
2022/07/20 07:51:32;;;;;;;4.50;4.20;;;45.40;43.80;;;;;;4985453;28;20785;-50
2022/07/20 07:54:00;;;;;;;3.90;3.60;;;46.00;43.20;;;;;;4999675;28;20463;-54
2022/07/20 07:56:27;;;;;;;3.87;3.50;;;45.20;43.50;;;;;;5013360;28;20506;-55
2022/07/20 07:58:54;;;;;;;3.90;3.00;;;45.40;43.70;;;;;;5005944;28;20431;-53
2022/07/20 08:01:41;;;;;;;3.10;2.80;;;44.20;43.20;;;;;;5015035;28;20443;-53
2022/07/20 08:04:09;;;;;;;5.03;3.63;;;43.60;43.50;;;;;;5009438;28;20459;-50
2022/07/20 08:06:36;;;;;;;4.13;3.60;;;41.90;45.20;;;;;;5014555;28;20437;-46
2022/07/20 08:09:07;;;;;;;3.30;3.03;;;42.50;44.40;;;;;;4996951;28;20503;-52
2022/07/20 08:11:35;;;;;;;4.00;3.43;;;44.30;43.30;;;;;;4995069;28;20437;-49
2022/07/20 08:14:02;;;;;;;2.90;2.70;;;45.40;42.20;;;;;;4995377;28;20457;-49
2022/07/20 08:16:32;;;;;;;3.80;3.23;;;46.30;40.60;;;;;;4997192;28;20456;-49
2022/07/20 08:18:59;;;;;;;3.20;3.00;;;45.90;40.40;;;;;;4999669;28;20446;-48
2022/07/20 08:21:27;;;;;;;9.70;3.83;;;45.40;40.60;;;;;;5007107;28;20435;-53
2022/07/20 08:24:01;;;;;;;3.80;3.50;;;45.80;40.30;;;;;;5011652;28;20486;-52
2022/07/20 08:26:28;;;;;;;3.60;3.30;;;46.50;39.50;;;;;;5009741;28;20527;-47
2022/07/20 08:28:55;;;;;;;4.30;4.00;;;45.40;40.40;;;;;;5011703;28;20634;-47
2022/07/20 08:31:22;;;;;;;3.50;3.10;;;45.00;40.40;;;;;;5009530;28;20427;-49
2022/07/20 08:33:49;;;;;;;3.50;2.73;;;45.00;40.90;;;;;;5011489;28;20451;-48
2022/07/20 08:36:17;;;;;;;4.20;3.10;;;46.60;39.80;;;;;;5011088;28;20434;-53
2022/07/20 08:38:44;;;;;;;11.30;3.87;;;46.90;38.90;;;;;;5008279;28;20489;-52
2022/07/20 08:41:13;;;;;;;3.50;3.00;;;46.30;38.40;;;;;;5011823;28;20510;-54
2022/07/20 08:43:40;;;;;;;4.23;2.80;;;44.30;40.20;;;;;;5009835;28;20483;-51
2022/07/20 08:46:07;;;;;;;4.10;3.70;;;43.50;40.90;;;;;;5011537;28;20430;-48
2022/07/20 08:48:35;;;;;;;3.07;2.77;;;42.60;41.90;;;;;;5007319;28;20443;-49
2022/07/20 08:51:02;;;;;;;2.67;2.40;;;41.90;42.60;;;;;;5009466;28;20696;-49
2022/07/20 08:53:30;;;;;;;2.80;2.60;;;42.50;42.10;;;;;;5021097;22;20829;-58
2022/07/20 08:55:57;;;;;;;4.90;3.60;;;43.80;40.40;;;;;;5008434;28;20474;-57
2022/07/20 08:58:24;;;;;;;2.87;2.67;;;46.10;38.30;;;;;;5015303;28;20798;-58
2022/07/20 09:00:51;;;;;;;6.20;2.60;;;47.50;36.80;;;;;;5019392;28;20449;-57
2022/07/20 09:03:19;;;;;;;7.27;3.40;;;48.30;36.60;;;;;;5015926;28;20533;-56
2022/07/20 09:06:04;;;;;;;3.37;3.10;;;49.00;35.60;;;;;;5019030;28;20774;-57
2022/07/20 09:08:32;;;;;;;7.00;3.03;;;47.80;35.80;;;;;;5017478;28;20795;-59
2022/07/20 09:11:02;;;;;;;7.77;3.23;;;46.80;36.20;;;;;;5014630;28;20435;-56
2022/07/20 09:13:30;;;;;;;5.67;3.00;;;47.00;36.10;;;;;;5018441;28;20466;-57
2022/07/20 09:15:59;;;;;;;3.00;2.80;;;45.90;37.00;;;;;;5015643;28;20440;-57
2022/07/20 09:18:27;;;;;;;4.70;2.80;;;45.30;37.10;;;;;;5018032;28;20624;-59
2022/07/20 09:20:56;;;;;;;2.93;2.63;;;45.00;37.80;;;;;;5015586;28;20445;-58
2022/07/20 09:23:26;;;;;;;6.13;2.60;;;46.40;35.80;;;;;;5017503;28;20488;-58
2022/07/20 09:26:02;;;;;;;4.83;2.63;;;46.20;35.70;;;;;;5018340;28;20443;-56
2022/07/20 09:28:51;;;;;;;2.40;2.20;;;45.30;36.30;;;;;;5017507;28;20435;-55
2022/07/20 09:31:26;;;;;;;7.53;3.50;;;44.40;36.30;;;;;;5021932;28;20431;-56
2022/07/20 09:34:12;;;;;;;2.60;2.40;;;45.60;35.70;;;;;;5015673;28;20458;-55
2022/07/20 09:36:42;;;;;;;3.70;2.20;;;45.90;35.70;;;;;;5020986;28;20450;-58
2022/07/20 09:39:15;;;;;;;2.77;2.53;;;46.00;35.80;;;;;;5018042;28;20444;-59
2022/07/20 09:41:52;;;;;;;4.03;2.90;;;43.50;38.20;;;;;;5019981;28;20438;-56
2022/07/20 09:44:26;;;;;;;3.30;2.60;;;41.40;39.70;;;;;;5016786;28;20474;-58
2022/07/20 09:46:54;;;;;;;2.93;2.73;;;39.50;41.60;;;;;;5019578;28;20430;-58
2022/07/20 09:49:36;;;;;;;5.93;3.73;;;37.90;43.30;;;;;;5022353;28;20435;-56
2022/07/20 09:52:06;;;;;;;3.93;2.90;;;37.20;44.60;;;;;;5019038;28;20494;-59
2022/07/20 09:54:53;;;;;;;3.27;2.97;;;36.00;43.90;;;;;;5011894;28;20654;-57
2022/07/20 09:57:21;;;;;;;2.90;2.70;;;35.30;46.00;;;;;;5019705;28;20785;-58
2022/07/20 09:59:51;;;;;;;3.37;2.07;;;35.20;46.40;;;;;;5010902;28;20438;-57
2022/07/20 10:02:23;;;;;;;2.87;2.67;;;35.40;46.20;;;;;;5017652;28;20753;-58
2022/07/20 10:04:52;;;;;;;3.27;2.90;;;35.30;45.80;;;;;;5014191;28;20426;-58
2022/07/20 10:07:20;;;;;;;4.33;2.60;;;35.40;45.70;;;;;;5017848;28;20678;-57
2022/07/20 10:09:48;;;;;;;2.97;2.73;;;35.70;46.20;;;;;;5014028;28;20427;-58
2022/07/20 10:12:15;;;;;;;4.17;3.43;;;35.80;45.70;;;;;;5019099;28;20438;-60
2022/07/20 10:14:46;;;;;;;3.87;3.07;;;35.70;45.50;;;;;;5021196;28;20445;-57
2022/07/20 10:17:14;;;;;;;3.63;2.90;;;35.30;45.60;;;;;;5018127;28;20459;-58
2022/07/20 10:19:48;;;;;;;3.53;2.90;;;35.10;45.80;;;;;;5020027;28;20824;-58
2022/07/20 10:22:16;;;;;;;3.53;3.33;;;35.00;46.30;;;;;;5017317;28;20434;-59
2022/07/20 10:24:44;;;;;;;3.47;2.60;;;34.90;46.50;;;;;;5019393;28;20538;-58
2022/07/20 10:27:13;;;;;;;3.40;3.10;;;35.00;46.20;;;;;;5016131;28;20522;-57
2022/07/20 10:29:54;;;;;;;3.80;3.50;;;35.20;46.20;;;;;;5017595;28;20441;-59
2022/07/20 10:32:28;;;;;;;2.80;2.57;;;35.20;46.70;;;;;;5020900;28;20441;-61
2022/07/20 10:34:58;;;;;;;3.60;3.30;;;35.50;46.30;;;;;;5017485;28;20473;-58
2022/07/20 10:37:34;;;;;;;5.90;2.77;;;35.70;45.70;;;;;;5020744;28;20503;-56
2022/07/20 10:40:21;;;;;;;4.57;3.20;;;35.70;45.90;;;;;;5016836;28;20576;-59
2022/07/20 10:43:16;;;;;;;4.20;2.60;;;35.80;46.00;;;;;;5009846;28;20677;-58
2022/07/20 10:45:45;;;;;;;4.47;3.47;;;35.50;45.50;;;;;;5018012;28;20460;-57
2022/07/20 10:48:12;;;;;;;8.40;2.50;;;35.00;46.00;;;;;;5020623;28;20435;-58
2022/07/20 10:50:40;;;;;;;4.30;3.30;;;34.80;46.40;;;;;;5017394;28;20497;-58
2022/07/20 10:53:10;;;;;;;3.80;3.47;;;34.80;46.60;;;;;;5019650;28;20517;-59
2022/07/20 10:55:38;;;;;;;5.90;3.50;;;35.10;47.00;;;;;;5016166;28;20453;-59
2022/07/20 10:58:06;;;;;;;3.63;3.27;;;35.30;45.50;;;;;;5018809;28;20687;-58
2022/07/20 11:00:39;;;;;;;3.93;3.53;;;35.50;45.50;;;;;;5015301;28;20645;-56
2022/07/20 11:03:27;;;;;;;4.17;3.40;;;35.80;46.30;;;;;;5017839;28;20541;-57
2022/07/20 11:06:10;;;;;;;7.00;3.50;;;35.90;45.90;;;;;;5014291;28;20450;-57
2022/07/20 11:08:43;;;;;;;3.43;3.13;;;36.10;44.90;;;;;;5015131;28;20441;-56
2022/07/20 11:11:16;;;;;;;14.80;3.77;;;36.20;45.60;;;;;;5017950;28;20427;-58
2022/07/20 11:13:43;;;;;;;3.53;3.23;;;36.20;45.10;;;;;;5020516;28;20878;-58
2022/07/20 11:16:11;;;;;;;4.70;2.70;;;36.20;44.80;;;;;;5020187;28;20502;-59
2022/07/20 11:18:39;;;;;;;3.33;2.93;;;36.10;44.50;;;;;;5020711;28;20640;-56
2022/07/20 11:21:08;;;;;;;7.50;3.93;;;35.90;44.90;;;;;;5017989;28;20439;-56
2022/07/20 11:23:45;;;;;;;3.63;3.33;;;35.80;45.20;;;;;;5019389;28;20489;-56
2022/07/20 11:26:15;;;;;;;3.77;3.33;;;35.80;44.90;;;;;;5015278;28;20455;-57
2022/07/20 11:28:51;;;;;;;4.87;3.30;;;35.70;44.60;;;;;;5017644;28;20833;-57
2022/07/20 11:31:22;;;;;;;3.30;3.10;;;35.70;44.90;;;;;;5019832;28;20466;-58
2022/07/20 11:33:52;;;;;;;3.30;3.10;;;35.60;45.30;;;;;;5009326;28;20454;-58
2022/07/20 11:36:39;;;;;;;3.60;3.30;;;35.80;45.50;;;;;;5018895;28;20442;-59
2022/07/20 11:39:10;;;;;;;4.30;3.90;;;36.00;44.80;;;;;;5010741;28;20430;-57
2022/07/20 11:41:42;;;;;;;3.73;3.53;;;36.20;44.80;;;;;;5017442;28;20453;-56
2022/07/20 11:44:21;;;;;;;3.80;3.40;;;36.30;45.10;;;;;;5019734;28;20486;-57
2022/07/20 11:46:48;;;;;;;5.00;3.40;;;36.40;44.40;;;;;;5016710;28;20434;-58
2022/07/20 11:49:18;;;;;;;5.43;3.80;;;36.30;44.50;;;;;;5020590;28;20439;-58
2022/07/20 11:52:01;;;;;;;5.50;4.20;;;36.50;45.10;;;;;;5015826;28;20430;-57
2022/07/20 11:54:35;;;;;;;4.13;3.70;;;36.40;44.70;;;;;;5020013;28;20484;-57
2022/07/20 11:57:05;;;;;;;4.33;3.70;;;36.50;44.20;;;;;;5017465;28;20509;-56
2022/07/20 11:59:34;;;;;;;5.10;3.60;;;36.50;44.70;;;;;;5019997;28;20453;-59
2022/07/20 12:02:02;;;;;;;3.90;3.60;;;36.60;44.60;;;;;;5019524;28;20437;-59
2022/07/20 12:04:34;;;;;;;3.60;3.30;;;36.20;43.80;;;;;;5017244;28;20486;-59
2022/07/20 12:08:07;;;;;;;3.63;3.33;;;36.00;44.00;;;;;;5019909;28;20496;-59
2022/07/20 12:09:49;;;;;;;5.33;3.93;;;35.90;44.20;;;;;;5018278;28;20708;-59
2022/07/20 12:12:44;;;;;;;5.40;4.20;;;35.90;43.90;;;;;;5016359;28;20442;-56
2022/07/20 12:15:12;;;;;;;4.67;4.30;;;35.90;43.50;;;;;;5015422;28;20607;-58
2022/07/20 12:17:50;;;;;;;4.97;3.60;;;35.80;43.60;;;;;;5014315;28;20462;-57
2022/07/20 12:20:19;;;;;;;5.30;4.40;;;35.80;43.70;;;;;;5020278;28;20427;-59
2022/07/20 12:22:57;;;;;;;4.90;3.97;;;35.70;43.70;;;;;;5012193;28;20663;-57
2022/07/20 12:25:43;;;;;;;3.70;3.40;;;35.60;44.30;;;;;;5019395;28;20439;-57
2022/07/20 12:28:10;;;;;;;4.20;3.80;;;35.80;44.00;;;;;;5014181;28;20437;-57
2022/07/20 12:31:18;;;;;;;3.93;3.63;;;35.80;43.60;;;;;;5013213;28;20422;-57
2022/07/20 12:34:11;;;;;;;4.50;4.10;;;35.80;44.40;;;;;;5015848;28;20454;-59
2022/07/20 12:36:46;;;;;;;4.70;4.20;;;36.00;44.20;;;;;;5017818;28;20757;-57
2022/07/20 12:39:34;;;;;;;4.07;3.77;;;36.10;44.40;;;;;;5015267;28;20458;-58
2022/07/20 12:42:10;;;;;;;4.50;3.63;;;36.30;43.50;;;;;;5019452;28;20430;-57
2022/07/20 12:45:05;;;;;;;4.40;4.00;;;36.00;43.70;;;;;;5011261;28;20462;-56
2022/07/20 12:47:33;;;;;;;4.63;3.77;;;36.20;44.00;;;;;;5018354;28;20513;-58
2022/07/20 12:50:20;;;;;;;4.07;3.77;;;36.10;43.90;;;;;;5017202;28;20427;-57
2022/07/20 12:52:47;;;;;;;4.20;3.80;;;36.10;43.50;;;;;;5017546;28;20454;-57
2022/07/20 12:55:14;;;;;;;11.60;3.30;;;36.20;44.00;;;;;;5019484;28;20431;-57
2022/07/20 12:57:42;;;;;;;4.93;4.53;;;36.20;44.40;;;;;;5020832;28;20446;-59
2022/07/20 13:00:09;;;;;;;7.73;4.40;;;36.40;43.80;;;;;;5023312;28;20440;-58